sensor_id;sensor_type;location;lat;lon;timestamp;P1;durP1;ratioP1;P2;durP2;ratioP2
39490;SDS011;25175;50.140;18.990;2022-07-05T00:02:52;9.18;;;4.18;;
39490;SDS011;25175;50.140;18.990;2022-07-05T00:05:54;4.82;;;3.80;;
39490;SDS011;25175;50.140;18.990;2022-07-05T00:08:56;6.40;;;4.05;;
39490;SDS011;25175;50.140;18.990;2022-07-05T00:11:58;6.32;;;3.65;;
39490;SDS011;25175;50.140;18.990;2022-07-05T00:15:01;8.82;;;3.90;;
39490;SDS011;25175;50.140;18.990;2022-07-05T00:18:05;6.40;;;3.80;;
39490;SDS011;25175;50.140;18.990;2022-07-05T00:21:07;6.72;;;3.80;;
39490;SDS011;25175;50.140;18.990;2022-07-05T00:24:09;8.40;;;3.90;;
39490;SDS011;25175;50.140;18.990;2022-07-05T00:27:11;6.38;;;3.78;;
39490;SDS011;25175;50.140;18.990;2022-07-05T00:30:14;6.55;;;3.85;;
39490;SDS011;25175;50.140;18.990;2022-07-05T00:33:17;9.27;;;4.10;;
39490;SDS011;25175;50.140;18.990;2022-07-05T00:36:20;5.55;;;4.20;;
39490;SDS011;25175;50.140;18.990;2022-07-05T00:39:22;6.65;;;4.60;;
39490;SDS011;25175;50.140;18.990;2022-07-05T00:42:24;10.18;;;4.53;;
39490;SDS011;25175;50.140;18.990;2022-07-05T00:50:27;9.30;;;4.50;;
39490;SDS011;25175;50.140;18.990;2022-07-05T00:53:29;6.78;;;4.75;;
39490;SDS011;25175;50.140;18.990;2022-07-05T00:56:32;6.95;;;4.70;;
39490;SDS011;25175;50.140;18.990;2022-07-05T00:59:34;9.57;;;4.85;;
39490;SDS011;25175;50.140;18.990;2022-07-05T01:02:36;8.80;;;4.65;;
39490;SDS011;25175;50.140;18.990;2022-07-05T01:05:40;6.43;;;4.60;;
39490;SDS011;25175;50.140;18.990;2022-07-05T01:08:42;6.68;;;4.55;;
39490;SDS011;25175;50.140;18.990;2022-07-05T01:11:48;9.93;;;5.00;;
39490;SDS011;25175;50.140;18.990;2022-07-05T01:14:52;7.53;;;4.63;;
39490;SDS011;25175;50.140;18.990;2022-07-05T01:17:56;7.53;;;4.75;;
39490;SDS011;25175;50.140;18.990;2022-07-05T01:21:01;7.03;;;4.80;;
39490;SDS011;25175;50.140;18.990;2022-07-05T01:24:05;7.38;;;4.63;;
39490;SDS011;25175;50.140;18.990;2022-07-05T01:27:08;8.95;;;4.85;;
39490;SDS011;25175;50.140;18.990;2022-07-05T01:30:11;7.75;;;4.80;;
39490;SDS011;25175;50.140;18.990;2022-07-05T01:33:13;8.73;;;5.60;;
39490;SDS011;25175;50.140;18.990;2022-07-05T01:36:15;12.63;;;6.50;;
39490;SDS011;25175;50.140;18.990;2022-07-05T01:39:19;10.15;;;6.32;;
39490;SDS011;25175;50.140;18.990;2022-07-05T01:42:21;9.48;;;6.53;;
39490;SDS011;25175;50.140;18.990;2022-07-05T01:45:24;15.02;;;6.63;;
39490;SDS011;25175;50.140;18.990;2022-07-05T01:48:42;13.20;;;6.57;;
39490;SDS011;25175;50.140;18.990;2022-07-05T01:51:47;12.32;;;6.30;;
39490;SDS011;25175;50.140;18.990;2022-07-05T01:54:54;10.80;;;6.00;;
39490;SDS011;25175;50.140;18.990;2022-07-05T01:57:56;10.00;;;6.15;;
39490;SDS011;25175;50.140;18.990;2022-07-05T02:00:59;20.02;;;7.07;;
39490;SDS011;25175;50.140;18.990;2022-07-05T02:04:03;9.07;;;5.65;;
39490;SDS011;25175;50.140;18.990;2022-07-05T02:07:06;10.50;;;6.35;;
39490;SDS011;25175;50.140;18.990;2022-07-05T02:10:12;15.88;;;7.00;;
39490;SDS011;25175;50.140;18.990;2022-07-05T02:13:15;12.30;;;6.47;;
39490;SDS011;25175;50.140;18.990;2022-07-05T02:16:21;11.00;;;6.13;;
39490;SDS011;25175;50.140;18.990;2022-07-05T02:19:25;11.30;;;6.57;;
39490;SDS011;25175;50.140;18.990;2022-07-05T02:22:28;11.45;;;6.35;;
39490;SDS011;25175;50.140;18.990;2022-07-05T02:25:32;9.40;;;6.57;;
39490;SDS011;25175;50.140;18.990;2022-07-05T02:28:38;9.65;;;6.13;;
39490;SDS011;25175;50.140;18.990;2022-07-05T02:31:41;10.85;;;6.35;;
39490;SDS011;25175;50.140;18.990;2022-07-05T02:34:44;11.23;;;6.63;;
39490;SDS011;25175;50.140;18.990;2022-07-05T02:37:47;12.07;;;7.55;;
39490;SDS011;25175;50.140;18.990;2022-07-05T02:40:51;13.82;;;6.38;;
39490;SDS011;25175;50.140;18.990;2022-07-05T02:43:53;11.55;;;7.45;;
39490;SDS011;25175;50.140;18.990;2022-07-05T02:47:01;12.85;;;7.15;;
39490;SDS011;25175;50.140;18.990;2022-07-05T02:50:07;12.93;;;7.07;;
39490;SDS011;25175;50.140;18.990;2022-07-05T02:53:16;11.93;;;6.90;;
39490;SDS011;25175;50.140;18.990;2022-07-05T02:56:21;13.07;;;7.50;;
39490;SDS011;25175;50.140;18.990;2022-07-05T02:59:24;11.38;;;7.45;;
39490;SDS011;25175;50.140;18.990;2022-07-05T03:02:27;10.95;;;7.45;;
39490;SDS011;25175;50.140;18.990;2022-07-05T03:05:31;10.57;;;6.80;;
39490;SDS011;25175;50.140;18.990;2022-07-05T03:08:37;16.23;;;6.95;;
39490;SDS011;25175;50.140;18.990;2022-07-05T03:11:41;12.20;;;6.93;;
39490;SDS011;25175;50.140;18.990;2022-07-05T03:14:44;14.57;;;7.82;;
39490;SDS011;25175;50.140;18.990;2022-07-05T03:17:46;12.15;;;7.35;;
39490;SDS011;25175;50.140;18.990;2022-07-05T03:20:51;14.60;;;7.57;;
39490;SDS011;25175;50.140;18.990;2022-07-05T03:23:56;15.70;;;7.80;;
39490;SDS011;25175;50.140;18.990;2022-07-05T03:27:00;15.77;;;7.53;;
39490;SDS011;25175;50.140;18.990;2022-07-05T03:30:03;12.85;;;7.63;;
39490;SDS011;25175;50.140;18.990;2022-07-05T03:33:09;14.45;;;8.20;;
39490;SDS011;25175;50.140;18.990;2022-07-05T03:36:15;11.20;;;7.65;;
39490;SDS011;25175;50.140;18.990;2022-07-05T03:39:19;13.82;;;7.53;;
39490;SDS011;25175;50.140;18.990;2022-07-05T03:42:23;9.57;;;6.70;;
39490;SDS011;25175;50.140;18.990;2022-07-05T03:45:26;12.60;;;6.97;;
39490;SDS011;25175;50.140;18.990;2022-07-05T03:48:28;14.00;;;6.88;;
39490;SDS011;25175;50.140;18.990;2022-07-05T03:51:31;15.00;;;6.57;;
39490;SDS011;25175;50.140;18.990;2022-07-05T03:54:35;8.68;;;6.43;;
39490;SDS011;25175;50.140;18.990;2022-07-05T03:57:41;10.88;;;6.28;;
39490;SDS011;25175;50.140;18.990;2022-07-05T04:00:44;10.98;;;7.30;;
39490;SDS011;25175;50.140;18.990;2022-07-05T04:03:50;14.77;;;6.57;;
39490;SDS011;25175;50.140;18.990;2022-07-05T04:06:52;17.77;;;7.50;;
39490;SDS011;25175;50.140;18.990;2022-07-05T04:09:54;15.15;;;6.97;;
39490;SDS011;25175;50.140;18.990;2022-07-05T04:12:58;12.82;;;7.68;;
39490;SDS011;25175;50.140;18.990;2022-07-05T04:16:03;16.70;;;7.78;;
39490;SDS011;25175;50.140;18.990;2022-07-05T04:19:05;14.73;;;8.00;;
39490;SDS011;25175;50.140;18.990;2022-07-05T04:22:10;14.65;;;8.65;;
39490;SDS011;25175;50.140;18.990;2022-07-05T04:25:13;13.00;;;8.35;;
39490;SDS011;25175;50.140;18.990;2022-07-05T04:28:24;11.13;;;7.18;;
39490;SDS011;25175;50.140;18.990;2022-07-05T04:31:29;16.83;;;7.03;;
39490;SDS011;25175;50.140;18.990;2022-07-05T04:34:32;10.93;;;6.95;;
39490;SDS011;25175;50.140;18.990;2022-07-05T04:37:34;17.15;;;7.07;;
39490;SDS011;25175;50.140;18.990;2022-07-05T04:40:37;14.65;;;7.63;;
39490;SDS011;25175;50.140;18.990;2022-07-05T04:43:41;12.57;;;7.43;;
39490;SDS011;25175;50.140;18.990;2022-07-05T04:49:48;13.40;;;7.50;;
39490;SDS011;25175;50.140;18.990;2022-07-05T04:52:51;12.32;;;7.38;;
39490;SDS011;25175;50.140;18.990;2022-07-05T04:55:53;12.25;;;7.07;;
39490;SDS011;25175;50.140;18.990;2022-07-05T04:58:57;14.60;;;7.93;;
39490;SDS011;25175;50.140;18.990;2022-07-05T05:01:59;11.48;;;7.75;;
39490;SDS011;25175;50.140;18.990;2022-07-05T05:05:01;14.02;;;7.65;;
39490;SDS011;25175;50.140;18.990;2022-07-05T05:08:04;17.38;;;8.95;;
39490;SDS011;25175;50.140;18.990;2022-07-05T05:11:06;14.70;;;7.65;;
39490;SDS011;25175;50.140;18.990;2022-07-05T05:14:10;10.48;;;7.25;;
39490;SDS011;25175;50.140;18.990;2022-07-05T05:17:12;16.33;;;8.13;;
39490;SDS011;25175;50.140;18.990;2022-07-05T05:20:15;14.50;;;7.50;;
39490;SDS011;25175;50.140;18.990;2022-07-05T05:23:18;13.90;;;8.15;;
39490;SDS011;25175;50.140;18.990;2022-07-05T05:26:21;20.75;;;8.27;;
39490;SDS011;25175;50.140;18.990;2022-07-05T05:29:24;9.88;;;7.70;;
39490;SDS011;25175;50.140;18.990;2022-07-05T05:32:27;12.07;;;8.07;;
39490;SDS011;25175;50.140;18.990;2022-07-05T05:35:29;14.20;;;8.07;;
39490;SDS011;25175;50.140;18.990;2022-07-05T05:38:31;14.63;;;8.32;;
39490;SDS011;25175;50.140;18.990;2022-07-05T05:41:33;14.98;;;8.48;;
39490;SDS011;25175;50.140;18.990;2022-07-05T05:44:37;15.90;;;8.60;;
39490;SDS011;25175;50.140;18.990;2022-07-05T05:47:46;12.52;;;8.82;;
39490;SDS011;25175;50.140;18.990;2022-07-05T05:50:49;16.35;;;9.13;;
39490;SDS011;25175;50.140;18.990;2022-07-05T05:53:52;17.52;;;10.07;;
39490;SDS011;25175;50.140;18.990;2022-07-05T05:56:54;15.95;;;10.13;;
39490;SDS011;25175;50.140;18.990;2022-07-05T05:59:58;15.02;;;9.18;;
39490;SDS011;25175;50.140;18.990;2022-07-05T06:03:00;18.60;;;9.32;;
39490;SDS011;25175;50.140;18.990;2022-07-05T06:06:02;15.20;;;9.13;;
39490;SDS011;25175;50.140;18.990;2022-07-05T06:09:04;19.23;;;10.23;;
39490;SDS011;25175;50.140;18.990;2022-07-05T06:12:07;19.42;;;11.38;;
39490;SDS011;25175;50.140;18.990;2022-07-05T06:15:12;19.45;;;10.50;;
39490;SDS011;25175;50.140;18.990;2022-07-05T06:18:14;15.40;;;9.32;;
39490;SDS011;25175;50.140;18.990;2022-07-05T06:21:16;17.10;;;10.25;;
39490;SDS011;25175;50.140;18.990;2022-07-05T06:24:18;20.48;;;10.02;;
39490;SDS011;25175;50.140;18.990;2022-07-05T06:27:20;20.00;;;12.38;;
39490;SDS011;25175;50.140;18.990;2022-07-05T06:30:24;20.83;;;12.48;;
39490;SDS011;25175;50.140;18.990;2022-07-05T06:33:27;21.23;;;12.15;;
39490;SDS011;25175;50.140;18.990;2022-07-05T06:36:29;17.48;;;11.63;;
39490;SDS011;25175;50.140;18.990;2022-07-05T06:39:32;19.08;;;11.63;;
39490;SDS011;25175;50.140;18.990;2022-07-05T06:42:34;18.98;;;12.02;;
39490;SDS011;25175;50.140;18.990;2022-07-05T06:45:39;19.00;;;11.18;;
39490;SDS011;25175;50.140;18.990;2022-07-05T06:48:41;22.73;;;12.40;;
39490;SDS011;25175;50.140;18.990;2022-07-05T06:51:43;20.52;;;12.13;;
39490;SDS011;25175;50.140;18.990;2022-07-05T06:54:46;20.40;;;11.73;;
39490;SDS011;25175;50.140;18.990;2022-07-05T06:57:48;24.25;;;12.88;;
39490;SDS011;25175;50.140;18.990;2022-07-05T07:00:51;21.63;;;12.23;;
39490;SDS011;25175;50.140;18.990;2022-07-05T07:03:54;23.13;;;12.75;;
39490;SDS011;25175;50.140;18.990;2022-07-05T07:06:56;27.10;;;15.32;;
39490;SDS011;25175;50.140;18.990;2022-07-05T07:09:58;20.52;;;13.95;;
39490;SDS011;25175;50.140;18.990;2022-07-05T07:13:00;20.00;;;13.40;;
39490;SDS011;25175;50.140;18.990;2022-07-05T07:16:04;25.38;;;13.40;;
39490;SDS011;25175;50.140;18.990;2022-07-05T07:19:06;24.70;;;12.95;;
39490;SDS011;25175;50.140;18.990;2022-07-05T07:22:08;20.85;;;12.27;;
39490;SDS011;25175;50.140;18.990;2022-07-05T07:25:11;22.48;;;12.10;;
39490;SDS011;25175;50.140;18.990;2022-07-05T07:28:13;24.73;;;12.35;;
39490;SDS011;25175;50.140;18.990;2022-07-05T07:31:16;22.52;;;12.10;;
39490;SDS011;25175;50.140;18.990;2022-07-05T07:34:18;18.98;;;11.10;;
39490;SDS011;25175;50.140;18.990;2022-07-05T07:37:21;18.25;;;11.13;;
39490;SDS011;25175;50.140;18.990;2022-07-05T07:40:23;16.25;;;10.20;;
39490;SDS011;25175;50.140;18.990;2022-07-05T07:43:25;18.05;;;11.13;;
39490;SDS011;25175;50.140;18.990;2022-07-05T07:46:29;16.35;;;10.70;;
39490;SDS011;25175;50.140;18.990;2022-07-05T07:49:31;17.55;;;9.88;;
39490;SDS011;25175;50.140;18.990;2022-07-05T07:52:33;15.40;;;9.55;;
39490;SDS011;25175;50.140;18.990;2022-07-05T07:55:37;14.15;;;9.10;;
39490;SDS011;25175;50.140;18.990;2022-07-05T07:58:40;12.40;;;8.27;;
39490;SDS011;25175;50.140;18.990;2022-07-05T08:01:44;17.42;;;9.15;;
39490;SDS011;25175;50.140;18.990;2022-07-05T08:04:46;13.23;;;7.90;;
39490;SDS011;25175;50.140;18.990;2022-07-05T08:07:48;14.30;;;9.00;;
39490;SDS011;25175;50.140;18.990;2022-07-05T08:10:52;13.75;;;8.77;;
39490;SDS011;25175;50.140;18.990;2022-07-05T08:13:54;23.98;;;11.10;;
39490;SDS011;25175;50.140;18.990;2022-07-05T08:16:58;17.10;;;11.48;;
39490;SDS011;25175;50.140;18.990;2022-07-05T08:20:00;17.80;;;12.52;;
39490;SDS011;25175;50.140;18.990;2022-07-05T08:23:20;18.05;;;10.77;;
39490;SDS011;25175;50.140;18.990;2022-07-05T08:26:23;16.60;;;10.35;;
39490;SDS011;25175;50.140;18.990;2022-07-05T08:29:25;18.33;;;9.48;;
39490;SDS011;25175;50.140;18.990;2022-07-05T08:32:29;16.85;;;10.27;;
39490;SDS011;25175;50.140;18.990;2022-07-05T08:35:31;17.73;;;10.65;;
39490;SDS011;25175;50.140;18.990;2022-07-05T08:38:33;15.32;;;10.02;;
39490;SDS011;25175;50.140;18.990;2022-07-05T08:41:36;13.27;;;9.35;;
39490;SDS011;25175;50.140;18.990;2022-07-05T08:44:41;12.77;;;9.13;;
39490;SDS011;25175;50.140;18.990;2022-07-05T08:47:46;13.07;;;8.43;;
39490;SDS011;25175;50.140;18.990;2022-07-05T08:50:50;12.13;;;8.30;;
39490;SDS011;25175;50.140;18.990;2022-07-05T08:53:54;12.30;;;8.45;;
39490;SDS011;25175;50.140;18.990;2022-07-05T08:56:56;12.48;;;8.00;;
39490;SDS011;25175;50.140;18.990;2022-07-05T08:59:58;10.23;;;7.55;;
39490;SDS011;25175;50.140;18.990;2022-07-05T09:03:02;16.08;;;8.38;;
39490;SDS011;25175;50.140;18.990;2022-07-05T09:06:06;13.63;;;8.40;;
39490;SDS011;25175;50.140;18.990;2022-07-05T09:09:10;13.00;;;8.02;;
39490;SDS011;25175;50.140;18.990;2022-07-05T09:12:12;13.32;;;8.27;;
39490;SDS011;25175;50.140;18.990;2022-07-05T09:15:15;11.20;;;8.40;;
39490;SDS011;25175;50.140;18.990;2022-07-05T09:21:42;11.18;;;8.23;;
39490;SDS011;25175;50.140;18.990;2022-07-05T09:24:45;13.95;;;7.75;;
39490;SDS011;25175;50.140;18.990;2022-07-05T09:27:48;11.13;;;7.63;;
39490;SDS011;25175;50.140;18.990;2022-07-05T09:30:53;10.35;;;6.93;;
39490;SDS011;25175;50.140;18.990;2022-07-05T09:34:07;9.73;;;6.78;;
39490;SDS011;25175;50.140;18.990;2022-07-05T09:37:10;9.93;;;6.22;;
39490;SDS011;25175;50.140;18.990;2022-07-05T09:40:12;8.18;;;6.50;;
39490;SDS011;25175;50.140;18.990;2022-07-05T09:43:14;8.70;;;6.47;;
39490;SDS011;25175;50.140;18.990;2022-07-05T09:46:18;8.98;;;5.95;;
39490;SDS011;25175;50.140;18.990;2022-07-05T09:49:32;9.60;;;5.90;;
39490;SDS011;25175;50.140;18.990;2022-07-05T09:52:35;8.40;;;6.25;;
39490;SDS011;25175;50.140;18.990;2022-07-05T09:55:39;10.95;;;6.43;;
39490;SDS011;25175;50.140;18.990;2022-07-05T09:58:41;11.32;;;6.57;;
39490;SDS011;25175;50.140;18.990;2022-07-05T10:01:44;11.30;;;5.97;;
39490;SDS011;25175;50.140;18.990;2022-07-05T10:04:47;10.32;;;6.25;;
39490;SDS011;25175;50.140;18.990;2022-07-05T10:07:51;10.05;;;6.10;;
39490;SDS011;25175;50.140;18.990;2022-07-05T10:10:55;9.40;;;6.00;;
39490;SDS011;25175;50.140;18.990;2022-07-05T10:13:57;8.98;;;5.50;;
39490;SDS011;25175;50.140;18.990;2022-07-05T10:17:00;6.88;;;5.22;;
39490;SDS011;25175;50.140;18.990;2022-07-05T10:20:05;7.32;;;5.28;;
39490;SDS011;25175;50.140;18.990;2022-07-05T10:23:14;9.00;;;5.50;;
39490;SDS011;25175;50.140;18.990;2022-07-05T10:26:17;8.82;;;5.35;;
39490;SDS011;25175;50.140;18.990;2022-07-05T10:29:20;9.02;;;5.35;;
39490;SDS011;25175;50.140;18.990;2022-07-05T10:32:23;9.05;;;4.53;;
39490;SDS011;25175;50.140;18.990;2022-07-05T10:35:28;5.03;;;3.53;;
39490;SDS011;25175;50.140;18.990;2022-07-05T10:38:30;6.07;;;3.30;;
39490;SDS011;25175;50.140;18.990;2022-07-05T10:41:37;5.68;;;3.42;;
39490;SDS011;25175;50.140;18.990;2022-07-05T10:44:40;5.43;;;3.88;;
39490;SDS011;25175;50.140;18.990;2022-07-05T10:47:46;6.63;;;3.97;;
39490;SDS011;25175;50.140;18.990;2022-07-05T10:51:17;7.85;;;4.53;;
39490;SDS011;25175;50.140;18.990;2022-07-05T10:54:19;6.82;;;4.40;;
39490;SDS011;25175;50.140;18.990;2022-07-05T10:57:22;6.45;;;4.50;;
39490;SDS011;25175;50.140;18.990;2022-07-05T11:00:24;6.30;;;4.25;;
39490;SDS011;25175;50.140;18.990;2022-07-05T11:03:32;5.97;;;4.00;;
39490;SDS011;25175;50.140;18.990;2022-07-05T11:06:41;8.57;;;3.67;;
39490;SDS011;25175;50.140;18.990;2022-07-05T11:09:58;8.63;;;3.88;;
39490;SDS011;25175;50.140;18.990;2022-07-05T11:13:03;5.63;;;2.95;;
39490;SDS011;25175;50.140;18.990;2022-07-05T11:16:38;5.53;;;2.03;;
39490;SDS011;25175;50.140;18.990;2022-07-05T11:19:58;4.05;;;2.20;;
39490;SDS011;25175;50.140;18.990;2022-07-05T11:23:07;4.78;;;2.60;;
39490;SDS011;25175;50.140;18.990;2022-07-05T11:26:12;4.32;;;2.72;;
39490;SDS011;25175;50.140;18.990;2022-07-05T11:32:44;3.78;;;2.80;;
39490;SDS011;25175;50.140;18.990;2022-07-05T11:35:46;5.55;;;2.70;;
39490;SDS011;25175;50.140;18.990;2022-07-05T11:42:19;3.25;;;2.33;;
39490;SDS011;25175;50.140;18.990;2022-07-05T11:45:22;3.05;;;1.92;;
39490;SDS011;25175;50.140;18.990;2022-07-05T11:48:26;3.70;;;2.17;;
39490;SDS011;25175;50.140;18.990;2022-07-05T11:51:29;3.20;;;2.08;;
39490;SDS011;25175;50.140;18.990;2022-07-05T11:54:33;5.40;;;2.40;;
39490;SDS011;25175;50.140;18.990;2022-07-05T11:57:35;5.30;;;2.60;;
39490;SDS011;25175;50.140;18.990;2022-07-05T12:00:39;4.40;;;2.33;;
39490;SDS011;25175;50.140;18.990;2022-07-05T12:03:52;3.58;;;2.22;;
39490;SDS011;25175;50.140;18.990;2022-07-05T12:06:55;7.22;;;2.58;;
39490;SDS011;25175;50.140;18.990;2022-07-05T12:09:59;4.28;;;2.67;;
39490;SDS011;25175;50.140;18.990;2022-07-05T12:13:20;4.78;;;2.67;;
39490;SDS011;25175;50.140;18.990;2022-07-05T12:16:23;4.93;;;2.83;;
39490;SDS011;25175;50.140;18.990;2022-07-05T12:19:26;6.30;;;2.90;;
39490;SDS011;25175;50.140;18.990;2022-07-05T12:22:29;5.80;;;3.05;;
39490;SDS011;25175;50.140;18.990;2022-07-05T12:25:34;5.22;;;3.20;;
39490;SDS011;25175;50.140;18.990;2022-07-05T12:28:37;6.22;;;3.60;;
39490;SDS011;25175;50.140;18.990;2022-07-05T12:31:42;7.22;;;4.05;;
39490;SDS011;25175;50.140;18.990;2022-07-05T12:34:59;6.07;;;4.30;;
39490;SDS011;25175;50.140;18.990;2022-07-05T12:38:04;5.75;;;3.78;;
39490;SDS011;25175;50.140;18.990;2022-07-05T12:41:08;4.55;;;3.30;;
39490;SDS011;25175;50.140;18.990;2022-07-05T12:44:11;6.22;;;3.80;;
39490;SDS011;25175;50.140;18.990;2022-07-05T12:47:14;5.65;;;3.40;;
39490;SDS011;25175;50.140;18.990;2022-07-05T12:50:16;3.63;;;2.92;;
39490;SDS011;25175;50.140;18.990;2022-07-05T12:53:18;5.63;;;3.22;;
39490;SDS011;25175;50.140;18.990;2022-07-05T12:56:39;5.43;;;3.20;;
39490;SDS011;25175;50.140;18.990;2022-07-05T13:00:06;7.15;;;3.67;;
39490;SDS011;25175;50.140;18.990;2022-07-05T13:03:11;4.35;;;3.30;;
39490;SDS011;25175;50.140;18.990;2022-07-05T13:06:13;7.00;;;3.70;;
39490;SDS011;25175;50.140;18.990;2022-07-05T13:09:15;4.47;;;3.67;;
39490;SDS011;25175;50.140;18.990;2022-07-05T13:12:32;5.43;;;3.33;;
39490;SDS011;25175;50.140;18.990;2022-07-05T13:15:35;5.45;;;3.70;;
39490;SDS011;25175;50.140;18.990;2022-07-05T13:18:38;5.18;;;3.60;;
39490;SDS011;25175;50.140;18.990;2022-07-05T13:21:41;5.32;;;3.40;;
39490;SDS011;25175;50.140;18.990;2022-07-05T13:24:43;7.18;;;3.67;;
39490;SDS011;25175;50.140;18.990;2022-07-05T13:27:47;7.15;;;3.40;;
39490;SDS011;25175;50.140;18.990;2022-07-05T13:30:49;5.40;;;3.63;;
39490;SDS011;25175;50.140;18.990;2022-07-05T13:33:51;8.38;;;3.70;;
39490;SDS011;25175;50.140;18.990;2022-07-05T13:36:53;7.05;;;3.90;;
39490;SDS011;25175;50.140;18.990;2022-07-05T13:39:56;9.38;;;4.15;;
39490;SDS011;25175;50.140;18.990;2022-07-05T13:43:00;8.07;;;4.55;;
39490;SDS011;25175;50.140;18.990;2022-07-05T13:46:02;7.93;;;4.65;;
39490;SDS011;25175;50.140;18.990;2022-07-05T13:49:04;7.45;;;5.38;;
39490;SDS011;25175;50.140;18.990;2022-07-05T13:52:06;8.98;;;4.95;;
39490;SDS011;25175;50.140;18.990;2022-07-05T13:55:09;8.60;;;5.43;;
39490;SDS011;25175;50.140;18.990;2022-07-05T13:58:13;8.18;;;4.43;;
39490;SDS011;25175;50.140;18.990;2022-07-05T14:01:15;8.15;;;4.80;;
39490;SDS011;25175;50.140;18.990;2022-07-05T14:04:21;7.32;;;4.05;;
39490;SDS011;25175;50.140;18.990;2022-07-05T14:07:25;8.48;;;4.50;;
39490;SDS011;25175;50.140;18.990;2022-07-05T14:10:28;7.07;;;4.18;;
39490;SDS011;25175;50.140;18.990;2022-07-05T14:13:31;8.25;;;4.32;;
39490;SDS011;25175;50.140;18.990;2022-07-05T14:16:35;6.43;;;4.50;;
39490;SDS011;25175;50.140;18.990;2022-07-05T14:19:37;8.55;;;4.40;;
39490;SDS011;25175;50.140;18.990;2022-07-05T14:22:39;8.40;;;4.88;;
39490;SDS011;25175;50.140;18.990;2022-07-05T14:25:42;8.73;;;4.75;;
39490;SDS011;25175;50.140;18.990;2022-07-05T14:28:47;8.40;;;5.38;;
39490;SDS011;25175;50.140;18.990;2022-07-05T14:31:49;8.95;;;5.05;;
39490;SDS011;25175;50.140;18.990;2022-07-05T14:34:51;6.93;;;5.47;;
39490;SDS011;25175;50.140;18.990;2022-07-05T14:37:54;8.63;;;5.00;;
39490;SDS011;25175;50.140;18.990;2022-07-05T14:40:56;9.15;;;5.97;;
39490;SDS011;25175;50.140;18.990;2022-07-05T14:43:59;8.50;;;5.50;;
39490;SDS011;25175;50.140;18.990;2022-07-05T14:47:02;9.15;;;5.47;;
39490;SDS011;25175;50.140;18.990;2022-07-05T14:50:04;8.63;;;5.32;;
39490;SDS011;25175;50.140;18.990;2022-07-05T14:53:06;7.22;;;4.60;;
39490;SDS011;25175;50.140;18.990;2022-07-05T14:56:09;9.80;;;4.85;;
39490;SDS011;25175;50.140;18.990;2022-07-05T14:59:13;10.60;;;4.78;;
39490;SDS011;25175;50.140;18.990;2022-07-05T15:02:15;6.30;;;4.18;;
39490;SDS011;25175;50.140;18.990;2022-07-05T15:05:17;8.98;;;4.40;;
39490;SDS011;25175;50.140;18.990;2022-07-05T15:08:19;8.02;;;5.03;;
39490;SDS011;25175;50.140;18.990;2022-07-05T15:11:22;7.07;;;4.93;;
39490;SDS011;25175;50.140;18.990;2022-07-05T15:14:25;7.60;;;4.75;;
39490;SDS011;25175;50.140;18.990;2022-07-05T15:17:29;8.40;;;4.82;;
39490;SDS011;25175;50.140;18.990;2022-07-05T15:20:31;11.35;;;5.20;;
39490;SDS011;25175;50.140;18.990;2022-07-05T15:23:33;10.77;;;5.25;;
39490;SDS011;25175;50.140;18.990;2022-07-05T15:26:35;8.48;;;5.45;;
39490;SDS011;25175;50.140;18.990;2022-07-05T15:29:39;11.30;;;6.13;;
39490;SDS011;25175;50.140;18.990;2022-07-05T15:32:42;11.05;;;5.43;;
39490;SDS011;25175;50.140;18.990;2022-07-05T15:35:45;9.82;;;5.55;;
39490;SDS011;25175;50.140;18.990;2022-07-05T15:38:47;9.98;;;5.68;;
39490;SDS011;25175;50.140;18.990;2022-07-05T15:41:49;8.40;;;6.10;;
39490;SDS011;25175;50.140;18.990;2022-07-05T15:44:55;10.05;;;6.07;;
39490;SDS011;25175;50.140;18.990;2022-07-05T15:47:57;11.20;;;6.07;;
39490;SDS011;25175;50.140;18.990;2022-07-05T15:50:59;7.82;;;5.40;;
39490;SDS011;25175;50.140;18.990;2022-07-05T15:54:01;9.23;;;4.95;;
39490;SDS011;25175;50.140;18.990;2022-07-05T15:57:04;7.20;;;4.90;;
39490;SDS011;25175;50.140;18.990;2022-07-05T16:00:08;10.52;;;5.72;;
39490;SDS011;25175;50.140;18.990;2022-07-05T16:03:11;9.50;;;4.90;;
39490;SDS011;25175;50.140;18.990;2022-07-05T16:06:13;10.70;;;5.30;;
39490;SDS011;25175;50.140;18.990;2022-07-05T16:09:16;9.52;;;4.85;;
39490;SDS011;25175;50.140;18.990;2022-07-05T16:12:18;7.20;;;5.25;;
39490;SDS011;25175;50.140;18.990;2022-07-05T16:15:22;7.93;;;5.47;;
39490;SDS011;25175;50.140;18.990;2022-07-05T16:18:42;9.68;;;5.20;;
39490;SDS011;25175;50.140;18.990;2022-07-05T16:21:45;8.10;;;5.30;;
39490;SDS011;25175;50.140;18.990;2022-07-05T16:24:50;8.15;;;5.20;;
39490;SDS011;25175;50.140;18.990;2022-07-05T16:27:52;14.70;;;6.10;;
39490;SDS011;25175;50.140;18.990;2022-07-05T16:30:55;27.20;;;6.72;;
39490;SDS011;25175;50.140;18.990;2022-07-05T16:33:58;12.10;;;5.57;;
39490;SDS011;25175;50.140;18.990;2022-07-05T16:37:00;11.15;;;5.30;;
39490;SDS011;25175;50.140;18.990;2022-07-05T16:40:05;9.70;;;5.93;;
39490;SDS011;25175;50.140;18.990;2022-07-05T16:43:08;11.05;;;5.20;;
39490;SDS011;25175;50.140;18.990;2022-07-05T16:46:12;9.80;;;4.93;;
39490;SDS011;25175;50.140;18.990;2022-07-05T16:49:16;9.73;;;5.40;;
39490;SDS011;25175;50.140;18.990;2022-07-05T16:52:18;9.35;;;5.28;;
39490;SDS011;25175;50.140;18.990;2022-07-05T16:55:20;19.27;;;8.20;;
39490;SDS011;25175;50.140;18.990;2022-07-05T16:58:22;15.20;;;7.18;;
39490;SDS011;25175;50.140;18.990;2022-07-05T17:01:27;10.35;;;5.18;;
39490;SDS011;25175;50.140;18.990;2022-07-05T17:04:29;10.27;;;4.97;;
39490;SDS011;25175;50.140;18.990;2022-07-05T17:07:31;12.90;;;6.68;;
39490;SDS011;25175;50.140;18.990;2022-07-05T17:10:34;14.85;;;6.70;;
39490;SDS011;25175;50.140;18.990;2022-07-05T17:13:36;10.25;;;6.30;;
39490;SDS011;25175;50.140;18.990;2022-07-05T17:16:40;8.98;;;5.32;;
39490;SDS011;25175;50.140;18.990;2022-07-05T17:19:42;8.70;;;5.35;;
39490;SDS011;25175;50.140;18.990;2022-07-05T17:22:44;10.00;;;5.57;;
39490;SDS011;25175;50.140;18.990;2022-07-05T17:25:50;7.75;;;5.15;;
39490;SDS011;25175;50.140;18.990;2022-07-05T17:28:52;9.38;;;5.25;;
39490;SDS011;25175;50.140;18.990;2022-07-05T17:31:56;12.27;;;5.97;;
39490;SDS011;25175;50.140;18.990;2022-07-05T17:34:58;6.97;;;5.43;;
39490;SDS011;25175;50.140;18.990;2022-07-05T17:38:00;9.05;;;6.10;;
39490;SDS011;25175;50.140;18.990;2022-07-05T17:41:03;10.13;;;6.00;;
39490;SDS011;25175;50.140;18.990;2022-07-05T17:44:08;10.63;;;6.43;;
39490;SDS011;25175;50.140;18.990;2022-07-05T17:47:11;11.57;;;6.78;;
39490;SDS011;25175;50.140;18.990;2022-07-05T17:50:13;11.38;;;6.65;;
39490;SDS011;25175;50.140;18.990;2022-07-05T17:53:15;13.20;;;6.97;;
39490;SDS011;25175;50.140;18.990;2022-07-05T17:56:17;11.75;;;7.68;;
39490;SDS011;25175;50.140;18.990;2022-07-05T17:59:20;12.95;;;8.05;;
39490;SDS011;25175;50.140;18.990;2022-07-05T18:02:23;12.75;;;7.82;;
39490;SDS011;25175;50.140;18.990;2022-07-05T18:05:25;19.58;;;9.85;;
39490;SDS011;25175;50.140;18.990;2022-07-05T18:08:28;19.70;;;10.73;;
39490;SDS011;25175;50.140;18.990;2022-07-05T18:11:30;20.13;;;10.73;;
39490;SDS011;25175;50.140;18.990;2022-07-05T18:14:32;17.65;;;10.50;;
39490;SDS011;25175;50.140;18.990;2022-07-05T18:17:36;19.30;;;9.85;;
39490;SDS011;25175;50.140;18.990;2022-07-05T18:20:39;22.00;;;11.20;;